createdAt,value
2018-07-13T00:00:31.311Z,7.28
2018-07-13T00:01:05.154Z,6.62
2018-07-13T00:01:39.222Z,8.03
2018-07-13T00:02:12.807Z,6.47
2018-07-13T00:02:46.469Z,7.35
2018-07-13T00:03:20.019Z,7.97
2018-07-13T00:03:53.650Z,7.28
2018-07-13T00:04:27.224Z,7.87
2018-07-13T00:05:00.909Z,7.15
2018-07-13T00:05:34.483Z,8.70
2018-07-13T00:06:08.067Z,8.08
2018-07-13T00:06:41.596Z,7.35
2018-07-13T00:07:15.160Z,8.28
2018-07-13T00:07:48.711Z,9.08
2018-07-13T00:08:22.327Z,8.08
2018-07-13T00:08:55.927Z,7.75
2018-07-13T00:09:29.717Z,8.03
2018-07-13T00:10:03.341Z,8.98
2018-07-13T00:10:36.940Z,8.50
2018-07-13T00:11:10.646Z,11.93
2018-07-13T00:11:44.207Z,8.25
2018-07-13T00:12:17.867Z,8.98
2018-07-13T00:12:51.448Z,8.43
2018-07-13T00:13:25.061Z,8.25
2018-07-13T00:14:22.271Z,7.95
2018-07-13T00:15:07.927Z,8.40
2018-07-13T00:15:52.686Z,9.30
2018-07-13T00:16:26.301Z,8.25
2018-07-13T00:16:59.962Z,8.05
2018-07-13T00:17:33.602Z,7.50
2018-07-13T00:18:07.201Z,7.83
2018-07-13T00:18:40.804Z,8.45
2018-07-13T00:19:15.134Z,8.28
2018-07-13T00:19:48.734Z,7.78
2018-07-13T00:20:22.374Z,8.05
2018-07-13T00:20:55.923Z,8.93
2018-07-13T00:21:29.487Z,8.23
2018-07-13T00:22:03.196Z,8.43
2018-07-13T00:22:36.838Z,8.53
2018-07-13T00:23:10.492Z,8.35
2018-07-13T00:23:44.157Z,8.13
2018-07-13T00:24:17.791Z,8.40
2018-07-13T00:24:51.512Z,8.23
2018-07-13T00:25:25.124Z,8.20
2018-07-13T00:25:58.850Z,8.25
2018-07-13T00:26:32.422Z,7.95
2018-07-13T00:27:06.363Z,8.30
2018-07-13T00:27:39.937Z,8.70
2018-07-13T00:28:13.542Z,7.42
2018-07-13T00:28:47.108Z,8.60
2018-07-13T00:29:20.745Z,8.48
2018-07-13T00:29:54.330Z,7.70
2018-07-13T00:30:27.873Z,7.87
2018-07-13T00:31:01.429Z,8.28
2018-07-13T00:31:35.681Z,8.83
2018-07-13T00:32:09.297Z,9.23
2018-07-13T00:32:42.862Z,8.25
2018-07-13T00:33:16.905Z,8.98
2018-07-13T00:33:50.689Z,8.35
2018-07-13T00:34:24.270Z,7.97
2018-07-13T00:34:57.865Z,8.30
2018-07-13T00:35:31.472Z,8.43
2018-07-13T00:36:06.556Z,8.40
2018-07-13T00:36:40.150Z,9.48
2018-07-13T00:37:14.170Z,9.78
2018-07-13T00:37:47.828Z,9.08
2018-07-13T00:38:21.365Z,9.18
2018-07-13T00:38:55.072Z,9.58
2018-07-13T00:39:28.719Z,8.95
2018-07-13T00:40:02.667Z,8.78
2018-07-13T00:40:36.242Z,7.97
2018-07-13T00:41:10.053Z,8.40
2018-07-13T00:41:43.690Z,9.38
2018-07-13T00:42:17.330Z,9.23
2018-07-13T00:42:50.995Z,8.28
2018-07-13T00:43:24.839Z,7.95
2018-07-13T00:43:58.495Z,8.98
2018-07-13T00:44:32.104Z,8.13
2018-07-13T00:45:05.662Z,9.25
2018-07-13T00:45:39.896Z,10.40
2018-07-13T00:46:13.723Z,8.90
2018-07-13T00:46:47.342Z,8.85
2018-07-13T00:47:20.993Z,9.93
2018-07-13T00:47:54.668Z,9.75
2018-07-13T00:48:28.399Z,8.70
2018-07-13T00:49:02.632Z,9.45
2018-07-13T00:49:36.270Z,9.48
2018-07-13T00:50:10.486Z,9.45
2018-07-13T00:50:44.127Z,9.88
2018-07-13T00:51:19.101Z,9.70
2018-07-13T00:51:53.694Z,10.55
2018-07-13T00:52:27.276Z,9.90
2018-07-13T00:53:00.896Z,10.78
2018-07-13T00:53:34.740Z,9.35
2018-07-13T00:54:09.348Z,9.58
2018-07-13T00:54:42.981Z,9.23
2018-07-13T00:55:16.596Z,9.68
2018-07-13T00:55:51.497Z,10.30
2018-07-13T00:56:24.739Z,9.75
2018-07-13T00:56:58.445Z,10.35
2018-07-13T00:57:32.030Z,9.60
2018-07-13T00:58:05.690Z,10.78
2018-07-13T00:58:39.302Z,9.70
2018-07-13T00:59:12.935Z,9.98
2018-07-13T00:59:46.579Z,9.00
2018-07-13T01:00:28.915Z,9.43
2018-07-13T01:01:02.555Z,9.63
2018-07-13T01:01:46.325Z,10.05
2018-07-13T01:02:20.026Z,8.28
2018-07-13T01:02:54.359Z,10.15
2018-07-13T01:03:28.198Z,10.70
2018-07-13T01:04:02.334Z,10.50
2018-07-13T01:04:36.071Z,9.85
2018-07-13T01:05:09.637Z,10.88
2018-07-13T01:05:43.766Z,9.88
2018-07-13T01:06:17.340Z,11.18
2018-07-13T01:06:50.954Z,11.15
2018-07-13T01:07:24.522Z,10.30
2018-07-13T01:07:58.383Z,10.18
2018-07-13T01:08:32.129Z,9.83
2018-07-13T01:09:06.583Z,10.90
2018-07-13T01:09:40.307Z,11.30
2018-07-13T01:10:14.294Z,10.05
2018-07-13T01:10:48.558Z,9.38
2018-07-13T01:11:22.147Z,10.58
2018-07-13T01:11:55.735Z,10.72
2018-07-13T01:12:29.298Z,10.72
2018-07-13T01:13:02.929Z,11.28
2018-07-13T01:13:36.523Z,10.68
2018-07-13T01:14:10.231Z,11.57
2018-07-13T01:14:43.828Z,10.35
2018-07-13T01:15:17.421Z,11.73
2018-07-13T01:15:51.302Z,11.53
2018-07-13T01:16:24.992Z,10.80
2018-07-13T01:16:58.598Z,11.25
2018-07-13T01:17:32.287Z,11.38
2018-07-13T01:18:05.908Z,10.65
2018-07-13T01:18:39.438Z,10.53
2018-07-13T01:19:12.967Z,10.30
2018-07-13T01:19:46.569Z,10.90
2018-07-13T01:23:18.974Z,9.80
2018-07-13T01:23:52.522Z,11.00
2018-07-13T01:24:27.314Z,11.85
2018-07-13T01:25:03.841Z,11.75
2018-07-13T01:25:42.533Z,10.25
2018-07-13T01:26:22.171Z,10.80
2018-07-13T01:26:58.693Z,9.78
2018-07-13T01:27:35.894Z,10.35
2018-07-13T01:28:14.999Z,10.00
2018-07-13T01:28:51.487Z,11.30
2018-07-13T01:29:26.477Z,11.18
2018-07-13T01:30:02.044Z,11.35
2018-07-13T01:30:38.230Z,10.23
2018-07-13T01:31:14.811Z,10.53
2018-07-13T01:31:49.022Z,11.03
2018-07-13T01:32:24.768Z,9.85
2018-07-13T01:32:59.619Z,10.38
2018-07-13T01:33:33.491Z,12.68
2018-07-13T01:34:08.050Z,10.82
2018-07-13T01:34:49.689Z,10.78
2018-07-13T01:35:26.792Z,11.08
2018-07-13T01:36:01.234Z,10.93
2018-07-13T01:36:41.203Z,10.25
2018-07-13T01:37:16.104Z,11.12
2018-07-13T01:37:51.846Z,10.88
2018-07-13T01:38:25.372Z,9.80
2018-07-13T01:38:58.895Z,12.75
2018-07-13T01:39:32.443Z,11.00
2018-07-13T01:40:07.728Z,11.60
2018-07-13T01:40:43.700Z,11.57
2018-07-13T01:41:17.378Z,12.00
2018-07-13T01:41:51.271Z,11.83
2018-07-13T01:42:25.231Z,11.08
2018-07-13T01:42:58.982Z,11.85
2018-07-13T01:43:32.971Z,10.98
2018-07-13T01:44:07.187Z,11.65
2018-07-13T01:44:41.410Z,10.90
2018-07-13T01:45:14.989Z,12.10
2018-07-13T01:45:48.654Z,11.78
2018-07-13T01:46:22.206Z,11.73
2018-07-13T01:46:55.841Z,10.53
2018-07-13T01:47:29.454Z,11.38
2018-07-13T01:48:03.110Z,10.70
2018-07-13T01:48:36.709Z,11.43
2018-07-13T01:49:10.907Z,11.10
2018-07-13T01:49:44.486Z,12.47
2018-07-13T01:50:18.043Z,11.70
2018-07-13T01:50:51.630Z,11.53
2018-07-13T01:51:25.299Z,11.48
2018-07-13T01:51:58.832Z,10.98
2018-07-13T01:52:32.358Z,12.68
2018-07-13T01:53:06.007Z,12.68
2018-07-13T01:53:39.531Z,11.35
2018-07-13T01:54:13.094Z,12.03
2018-07-13T01:54:46.646Z,11.78
2018-07-13T01:55:20.213Z,12.33
2018-07-13T01:55:54.922Z,11.88
2018-07-13T01:56:28.510Z,12.53
2018-07-13T01:57:02.079Z,13.00
2018-07-13T01:57:35.650Z,12.55
2018-07-13T01:58:09.290Z,11.38
2018-07-13T01:58:42.893Z,12.93
2018-07-13T01:59:16.480Z,11.22
2018-07-13T01:59:50.065Z,11.63
2018-07-13T02:00:23.610Z,11.33
2018-07-13T02:00:57.292Z,11.88
2018-07-13T02:01:30.878Z,13.45
2018-07-13T02:02:04.502Z,11.50
2018-07-13T02:02:38.067Z,12.90
2018-07-13T02:03:11.609Z,12.43
2018-07-13T02:03:45.201Z,12.58
2018-07-13T02:04:18.806Z,12.65
2018-07-13T02:04:52.373Z,11.33
2018-07-13T02:05:25.975Z,13.47
2018-07-13T02:05:59.571Z,12.15
2018-07-13T02:06:33.096Z,12.82
2018-07-13T02:07:06.659Z,11.57
2018-07-13T02:07:40.250Z,13.00
2018-07-13T02:08:13.862Z,13.70
2018-07-13T02:08:47.433Z,12.45
2018-07-13T02:09:21.022Z,13.13
2018-07-13T02:09:55.618Z,12.25
2018-07-13T02:10:28.837Z,13.03
2018-07-13T02:11:02.402Z,13.75
2018-07-13T02:11:35.938Z,12.35
2018-07-13T02:12:09.491Z,14.00
2018-07-13T02:12:43.024Z,13.22
2018-07-13T02:13:16.638Z,13.08
2018-07-13T02:13:50.397Z,13.30
2018-07-13T02:14:23.971Z,13.22
2018-07-13T02:14:57.627Z,12.50
2018-07-13T02:15:55.470Z,12.50
2018-07-13T02:16:29.003Z,11.97
2018-07-13T02:17:02.551Z,13.08
2018-07-13T02:17:36.191Z,14.23
2018-07-13T02:18:09.732Z,13.78
2018-07-13T02:18:43.258Z,13.05
2018-07-13T02:19:16.808Z,14.45
2018-07-13T02:19:50.384Z,13.77
2018-07-13T02:20:23.993Z,13.95
2018-07-13T02:20:57.526Z,13.45
2018-07-13T02:21:31.091Z,12.60
2018-07-13T02:22:04.630Z,13.40
2018-07-13T02:22:38.201Z,12.15
2018-07-13T02:23:11.818Z,12.88
2018-07-13T02:23:45.860Z,12.30
2018-07-13T02:24:19.794Z,13.00
2018-07-13T02:24:53.953Z,12.82
2018-07-13T02:25:27.854Z,13.05
2018-07-13T02:26:03.404Z,12.73
2018-07-13T02:26:38.795Z,13.28
2018-07-13T02:27:12.775Z,11.50
2018-07-13T02:27:46.302Z,12.75
2018-07-13T02:28:19.854Z,12.55
2018-07-13T02:28:53.479Z,13.72
2018-07-13T02:29:26.941Z,12.75
2018-07-13T02:30:00.989Z,13.60
2018-07-13T02:30:35.261Z,13.00
2018-07-13T02:31:09.426Z,12.30
2018-07-13T02:31:43.891Z,11.50
2018-07-13T02:32:17.498Z,11.83
2018-07-13T02:32:51.265Z,11.88
2018-07-13T02:33:25.484Z,13.90
2018-07-13T02:33:59.440Z,13.70
2018-07-13T02:34:33.756Z,12.73
2018-07-13T02:35:07.573Z,13.43
2018-07-13T02:35:41.539Z,12.85
2018-07-13T02:36:15.311Z,12.90
2018-07-13T02:36:48.972Z,13.08
2018-07-13T02:37:22.552Z,12.00
2018-07-13T02:37:56.331Z,11.88
2018-07-13T02:38:29.939Z,11.75
2018-07-13T02:39:04.823Z,12.33
2018-07-13T02:39:38.449Z,12.40
2018-07-13T02:40:12.044Z,12.35
2018-07-13T02:40:45.722Z,12.80
2018-07-13T02:41:19.314Z,12.07
2018-07-13T02:41:52.925Z,13.75
2018-07-13T02:42:26.536Z,11.93
2018-07-13T02:43:00.092Z,12.30
2018-07-13T02:43:34.145Z,12.90
2018-07-13T02:44:07.751Z,12.13
2018-07-13T02:44:41.358Z,12.25
2018-07-13T02:45:15.014Z,13.47
2018-07-13T02:45:48.819Z,13.63
2018-07-13T02:46:22.456Z,12.60
2018-07-13T02:46:56.038Z,12.65
2018-07-13T02:47:29.586Z,15.32
2018-07-13T02:48:04.025Z,13.07
2018-07-13T02:48:37.659Z,13.50
2018-07-13T02:49:11.252Z,13.50
2018-07-13T02:49:44.953Z,12.90
2018-07-13T02:50:18.548Z,12.87
2018-07-13T02:50:52.259Z,13.10
2018-07-13T02:51:25.967Z,12.63
2018-07-13T02:51:59.566Z,11.47
2018-07-13T02:52:32.788Z,12.58
2018-07-13T02:53:06.445Z,13.72
2018-07-13T02:53:40.017Z,13.57
2018-07-13T02:54:13.580Z,13.63
2018-07-13T02:54:47.152Z,13.23
2018-07-13T02:55:20.735Z,13.68
2018-07-13T02:55:54.396Z,12.57
2018-07-13T02:56:27.960Z,13.00
2018-07-13T02:57:01.511Z,13.53
2018-07-13T02:57:35.218Z,12.37
2018-07-13T02:58:08.803Z,13.60
2018-07-13T02:58:42.355Z,13.40
2018-07-13T02:59:16.016Z,13.50
2018-07-13T02:59:49.597Z,13.98
2018-07-13T03:00:22.915Z,13.00
2018-07-13T03:00:56.586Z,13.88
2018-07-13T03:01:30.215Z,13.63
2018-07-13T03:02:03.807Z,13.28
2018-07-13T03:02:37.362Z,14.57
2018-07-13T03:03:10.980Z,15.17
2018-07-13T03:03:44.196Z,13.88
2018-07-13T03:04:17.839Z,13.20
2018-07-13T03:04:51.429Z,13.95
2018-07-13T03:05:24.961Z,14.53
2018-07-13T03:05:58.526Z,14.90
2018-07-13T03:06:32.749Z,15.72
2018-07-13T03:07:06.308Z,13.78
2018-07-13T03:07:39.899Z,12.97
2018-07-13T03:08:13.451Z,13.90
2018-07-13T03:08:46.978Z,14.70
2018-07-13T03:09:20.565Z,13.33
2018-07-13T03:09:54.235Z,12.15
2018-07-13T03:10:27.794Z,14.78
2018-07-13T03:11:01.407Z,13.32
2018-07-13T03:11:35.029Z,13.63
2018-07-13T03:12:08.887Z,13.78
2018-07-13T03:12:42.442Z,14.20
2018-07-13T03:13:16.010Z,12.82
2018-07-13T03:13:49.539Z,13.83
2018-07-13T03:14:23.811Z,13.75
2018-07-13T03:14:57.342Z,14.07
2018-07-13T03:15:30.907Z,13.18
2018-07-13T03:16:04.454Z,13.87
2018-07-13T03:16:38.882Z,13.80
2018-07-13T03:17:12.411Z,13.73
2018-07-13T03:17:45.959Z,13.72
2018-07-13T03:18:19.554Z,13.93
2018-07-13T03:18:53.055Z,14.20
2018-07-13T03:19:26.589Z,14.63
2018-07-13T03:20:00.131Z,14.07
2018-07-13T03:20:33.653Z,13.18
2018-07-13T03:21:07.226Z,14.93
2018-07-13T03:21:40.804Z,15.25
2018-07-13T03:22:14.353Z,13.75
2018-07-13T03:22:47.915Z,13.65
2018-07-13T03:23:21.429Z,13.90
2018-07-13T03:23:54.944Z,13.68
2018-07-13T03:24:28.659Z,14.58
2018-07-13T03:25:02.240Z,14.35
2018-07-13T03:25:35.755Z,13.90
2018-07-13T03:26:09.311Z,14.55
2018-07-13T03:26:42.898Z,13.83
2018-07-13T03:27:16.518Z,14.35
2018-07-13T03:27:50.050Z,14.20
2018-07-13T03:28:23.598Z,14.00
2018-07-13T03:28:57.426Z,13.63
2018-07-13T03:29:30.951Z,14.07
2018-07-13T03:30:04.610Z,13.07
2018-07-13T03:30:38.155Z,14.43
2018-07-13T03:31:11.748Z,14.38
2018-07-13T03:31:45.276Z,14.13
2018-07-13T03:32:18.821Z,13.85
2018-07-13T03:32:52.333Z,12.27
2018-07-13T03:33:25.875Z,12.23
2018-07-13T03:33:59.092Z,14.93
2018-07-13T03:34:32.608Z,13.98
2018-07-13T03:35:06.170Z,13.58
2018-07-13T03:35:39.706Z,12.40
2018-07-13T03:36:13.245Z,14.07
2018-07-13T03:36:46.778Z,12.20
2018-07-13T03:37:20.305Z,14.13
2018-07-13T03:37:54.154Z,13.35
2018-07-13T03:38:27.785Z,13.80
2018-07-13T03:39:01.296Z,12.85
2018-07-13T03:39:34.857Z,13.67
2018-07-13T03:40:10.735Z,14.47
2018-07-13T03:40:44.283Z,12.97
2018-07-13T03:41:17.853Z,12.57
2018-07-13T03:41:51.368Z,13.75
2018-07-13T03:42:24.916Z,13.80
2018-07-13T03:42:58.463Z,13.43
2018-07-13T03:43:32.099Z,13.67
2018-07-13T03:44:05.687Z,14.07
2018-07-13T03:44:39.220Z,12.93
2018-07-13T03:45:12.830Z,12.80
2018-07-13T03:45:46.441Z,13.93
2018-07-13T03:46:20.012Z,13.45
2018-07-13T03:46:53.540Z,12.77
2018-07-13T03:47:30.125Z,12.80
2018-07-13T03:48:03.725Z,14.87
2018-07-13T03:48:42.109Z,12.83
2018-07-13T03:49:15.628Z,14.00
2018-07-13T03:49:48.847Z,12.87
2018-07-13T03:50:22.367Z,13.20
2018-07-13T03:50:55.914Z,13.93
2018-07-13T03:51:29.440Z,13.15
2018-07-13T03:52:02.976Z,14.60
2018-07-13T03:52:36.567Z,14.77
2018-07-13T03:53:10.194Z,13.90
2018-07-13T03:53:43.769Z,13.57
2018-07-13T03:54:17.523Z,15.53
2018-07-13T03:54:51.068Z,13.97
2018-07-13T03:55:24.610Z,13.80
2018-07-13T03:55:58.224Z,14.17
2018-07-13T03:56:31.784Z,14.27
2018-07-13T03:57:05.323Z,12.80
2018-07-13T03:57:38.872Z,13.00
2018-07-13T03:58:12.395Z,14.27
2018-07-13T03:58:45.927Z,13.43
2018-07-13T03:59:19.537Z,14.00
2018-07-13T03:59:53.054Z,12.90
2018-07-13T04:00:26.650Z,14.93
2018-07-13T04:01:00.256Z,14.73
2018-07-13T04:01:33.804Z,13.90
2018-07-13T04:02:07.983Z,12.87
2018-07-13T04:02:43.430Z,13.37
2018-07-13T04:03:16.985Z,13.88
2018-07-13T04:03:50.585Z,12.15
2018-07-13T04:04:24.086Z,13.50
2018-07-13T04:04:57.633Z,13.70
2018-07-13T04:05:31.162Z,12.70
2018-07-13T04:06:04.791Z,12.93
2018-07-13T04:06:38.315Z,12.97
2018-07-13T04:07:11.944Z,13.62
2018-07-13T04:07:45.505Z,12.93
2018-07-13T04:08:19.043Z,13.43
2018-07-13T04:08:52.627Z,12.28
2018-07-13T04:09:26.151Z,12.03
2018-07-13T04:09:59.668Z,12.40
2018-07-13T04:10:33.291Z,12.53
2018-07-13T04:11:06.899Z,13.85
2018-07-13T04:11:40.753Z,13.32
2018-07-13T04:12:14.362Z,12.70
2018-07-13T04:12:47.917Z,12.25
2018-07-13T04:13:21.494Z,13.05
2018-07-13T04:13:55.092Z,12.37
2018-07-13T04:14:28.669Z,11.90
2018-07-13T04:15:02.258Z,13.45
2018-07-13T04:15:35.891Z,13.10
2018-07-13T04:16:09.544Z,11.33
2018-07-13T04:16:43.143Z,12.82
2018-07-13T04:17:16.737Z,12.47
2018-07-13T04:17:50.362Z,12.55
2018-07-13T04:18:24.529Z,12.88
2018-07-13T04:18:58.089Z,12.37
2018-07-13T04:19:31.667Z,11.95
2018-07-13T04:20:05.353Z,12.35
2018-07-13T04:20:38.983Z,11.63
2018-07-13T04:21:12.559Z,12.98
2018-07-13T04:21:46.222Z,13.80
2018-07-13T04:22:19.806Z,12.45
2018-07-13T04:22:53.421Z,12.75
2018-07-13T04:23:26.990Z,13.20
2018-07-13T04:24:00.616Z,13.10
2018-07-13T04:24:34.248Z,14.67
2018-07-13T04:25:07.879Z,13.70
2018-07-13T04:25:41.570Z,13.10
2018-07-13T04:26:15.168Z,13.47
2018-07-13T04:26:49.544Z,13.20
2018-07-13T04:27:23.431Z,13.60
2018-07-13T04:27:56.982Z,13.65
2018-07-13T04:28:30.566Z,12.77
2018-07-13T04:29:04.977Z,13.57
2018-07-13T04:29:39.813Z,12.50
2018-07-13T04:30:13.453Z,13.30
2018-07-13T04:30:47.198Z,13.00
2018-07-13T04:31:21.665Z,13.80
2018-07-13T04:31:55.253Z,13.10
2018-07-13T04:32:28.839Z,14.10
2018-07-13T04:33:02.435Z,13.65
2018-07-13T04:33:36.009Z,14.25
2018-07-13T04:34:09.661Z,14.37
2018-07-13T04:34:43.440Z,13.55
2018-07-13T04:35:17.018Z,13.28
2018-07-13T04:35:51.827Z,13.83
2018-07-13T04:36:25.400Z,14.20
2018-07-13T04:36:58.972Z,16.48
2018-07-13T04:37:32.608Z,16.42
2018-07-13T04:38:06.375Z,16.27
2018-07-13T04:38:40.016Z,15.13
2018-07-13T04:39:14.079Z,16.05
2018-07-13T04:39:47.678Z,15.20
2018-07-13T04:40:21.254Z,14.07
2018-07-13T04:40:54.945Z,13.45
2018-07-13T04:41:28.581Z,13.65
2018-07-13T04:42:02.721Z,13.60
2018-07-13T04:42:36.263Z,13.15
2018-07-13T04:43:09.783Z,13.98
2018-07-13T04:43:43.335Z,12.87
2018-07-13T04:44:16.882Z,12.80
2018-07-13T04:44:50.402Z,14.03
2018-07-13T04:45:23.940Z,13.53
2018-07-13T04:45:57.778Z,13.20
2018-07-13T04:46:31.386Z,12.77
2018-07-13T04:47:05.058Z,12.73
2018-07-13T04:47:38.609Z,13.50
2018-07-13T04:48:12.174Z,12.93
2018-07-13T04:48:45.705Z,13.83
2018-07-13T04:49:19.288Z,13.83
2018-07-13T04:49:53.047Z,14.33
2018-07-13T04:50:26.567Z,12.98
2018-07-13T04:51:00.252Z,12.88
2018-07-13T04:51:33.860Z,13.48
2018-07-13T04:52:07.443Z,13.50
2018-07-13T04:52:41.028Z,13.13
2018-07-13T04:53:14.588Z,13.90
2018-07-13T04:53:48.258Z,17.37
2018-07-13T04:54:21.851Z,13.20
2018-07-13T04:54:55.451Z,17.37
2018-07-13T04:55:29.138Z,17.60
2018-07-13T04:56:02.745Z,14.30
2018-07-13T04:56:36.335Z,14.07
2018-07-13T04:57:09.934Z,12.75
2018-07-13T04:57:43.500Z,13.75
2018-07-13T04:58:17.065Z,13.45
2018-07-13T04:58:50.663Z,13.27
2018-07-13T04:59:24.315Z,13.17
2018-07-13T04:59:57.885Z,13.00
2018-07-13T05:00:31.872Z,14.05
2018-07-13T05:01:05.569Z,12.85
2018-07-13T05:01:39.527Z,12.60
2018-07-13T05:02:13.128Z,13.20
2018-07-13T05:02:46.792Z,13.22
2018-07-13T05:03:20.383Z,13.55
2018-07-13T05:03:54.940Z,13.58
2018-07-13T05:04:28.549Z,12.88
2018-07-13T05:05:03.283Z,12.78
2018-07-13T05:05:36.924Z,13.53
2018-07-13T05:06:10.557Z,13.85
2018-07-13T05:06:44.917Z,13.32
2018-07-13T05:07:18.471Z,12.68
2018-07-13T05:07:52.428Z,12.37
2018-07-13T05:08:26.655Z,12.25
2018-07-13T05:09:00.266Z,13.43
2018-07-13T05:09:33.880Z,13.85
2018-07-13T05:10:08.736Z,13.15
2018-07-13T05:10:42.279Z,12.85
2018-07-13T05:11:15.916Z,12.50
2018-07-13T05:11:49.561Z,13.00
2018-07-13T05:12:23.273Z,13.15
2018-07-13T05:12:57.332Z,13.45
2018-07-13T05:13:30.578Z,12.93
2018-07-13T05:14:04.881Z,14.35
2018-07-13T05:14:38.458Z,13.67
2018-07-13T05:15:11.996Z,13.25
2018-07-13T05:15:45.879Z,13.95
2018-07-13T05:16:19.756Z,13.25
2018-07-13T05:16:53.372Z,12.40
2018-07-13T05:17:27.143Z,14.18
2018-07-13T05:18:01.575Z,13.00
2018-07-13T05:18:35.198Z,13.55
2018-07-13T05:19:09.496Z,13.80
2018-07-13T05:19:43.137Z,12.97
2018-07-13T05:20:16.771Z,14.95
2018-07-13T05:20:50.365Z,13.62
2018-07-13T05:21:24.033Z,13.68
2018-07-13T05:21:57.572Z,13.53
2018-07-13T05:22:31.315Z,12.68
2018-07-13T05:23:05.005Z,13.45
2018-07-13T05:23:38.653Z,13.67
2018-07-13T05:24:12.229Z,13.93
2018-07-13T05:24:45.941Z,13.25
2018-07-13T05:25:19.553Z,14.50
2018-07-13T05:25:53.702Z,15.10
2018-07-13T05:26:27.899Z,14.47
2018-07-13T05:27:02.556Z,15.13
2018-07-13T05:27:36.172Z,13.55
2018-07-13T05:28:10.545Z,15.13
2018-07-13T05:28:43.870Z,15.23
2018-07-13T05:29:18.089Z,13.38
2018-07-13T05:29:51.745Z,14.23
2018-07-13T05:30:25.378Z,14.85
2018-07-13T05:30:58.982Z,13.90
2018-07-13T05:31:32.547Z,15.32
2018-07-13T05:32:07.401Z,13.43
2018-07-13T05:32:41.436Z,15.43
2018-07-13T05:33:15.013Z,13.90
2018-07-13T05:33:48.716Z,15.13
2018-07-13T05:34:23.390Z,15.00
2018-07-13T05:34:57.722Z,14.85
2018-07-13T05:35:31.892Z,14.63
2018-07-13T05:36:05.716Z,14.10
2018-07-13T05:36:40.898Z,14.30
2018-07-13T05:37:14.540Z,15.25
2018-07-13T05:37:48.169Z,15.72
2018-07-13T05:38:21.785Z,16.40
2018-07-13T05:38:55.042Z,15.48
2018-07-13T05:39:28.645Z,15.83
2018-07-13T05:40:03.401Z,15.00
2018-07-13T05:40:37.024Z,15.58
2018-07-13T05:41:11.138Z,16.52
2018-07-13T05:41:45.208Z,16.87
2018-07-13T05:42:18.780Z,17.05
2018-07-13T05:42:52.407Z,18.77
2018-07-13T05:43:25.959Z,17.05
2018-07-13T05:43:59.569Z,16.62
2018-07-13T05:44:33.166Z,17.67
2018-07-13T05:45:06.718Z,17.15
2018-07-13T05:45:40.300Z,18.25
2018-07-13T05:46:13.907Z,18.45
2018-07-13T05:46:47.491Z,17.57
2018-07-13T05:47:23.987Z,18.87
2018-07-13T05:47:57.558Z,18.45
2018-07-13T05:48:32.406Z,18.87
2018-07-13T05:49:05.995Z,19.15
2018-07-13T05:49:39.617Z,18.30
2018-07-13T05:50:13.237Z,19.95
2018-07-13T05:50:46.848Z,19.17
2018-07-13T05:51:20.447Z,18.48
2018-07-13T05:51:54.398Z,18.67
2018-07-13T05:52:28.295Z,18.45
2018-07-13T05:53:01.935Z,17.77
2018-07-13T05:53:35.667Z,19.75
2018-07-13T05:54:09.330Z,18.90
2018-07-13T05:54:42.943Z,19.98
2018-07-13T05:55:16.516Z,18.32
2018-07-13T05:55:50.127Z,19.45
2018-07-13T05:56:23.815Z,18.37
2018-07-13T05:56:57.350Z,18.50
2018-07-13T05:57:30.928Z,18.20
2018-07-13T05:58:04.495Z,18.02
2018-07-13T05:58:38.130Z,17.70
2018-07-13T05:59:11.730Z,18.07
2018-07-13T05:59:45.742Z,16.65
2018-07-13T06:00:18.982Z,17.25
2018-07-13T06:00:52.665Z,17.40
2018-07-13T06:01:26.278Z,16.05
2018-07-13T06:01:59.855Z,16.82
2018-07-13T06:02:33.463Z,17.10
2018-07-13T06:03:07.168Z,16.45
2018-07-13T06:03:40.745Z,18.40
2018-07-13T06:04:14.363Z,15.83
2018-07-13T06:04:47.939Z,16.97
2018-07-13T06:05:22.369Z,16.57
2018-07-13T06:05:56.538Z,16.67
2018-07-13T06:06:30.091Z,16.37
2018-07-13T06:07:03.694Z,16.52
2018-07-13T06:07:37.465Z,15.68
2018-07-13T06:08:11.098Z,15.93
2018-07-13T06:08:44.756Z,16.97
2018-07-13T06:09:18.364Z,16.30
2018-07-13T06:09:51.973Z,17.40
2018-07-13T06:10:25.525Z,16.85
2018-07-13T06:10:59.125Z,14.65
2018-07-13T06:11:32.697Z,14.15
2018-07-13T06:12:07.006Z,14.60
2018-07-13T06:12:40.642Z,13.93
2018-07-13T06:13:14.927Z,14.13
2018-07-13T06:13:48.514Z,14.15
2018-07-13T06:14:22.103Z,14.03
2018-07-13T06:14:55.767Z,14.05
2018-07-13T06:15:29.308Z,12.78
2018-07-13T06:16:02.870Z,13.43
2018-07-13T06:16:36.505Z,10.98
2018-07-13T06:17:10.071Z,12.80
2018-07-13T06:17:43.703Z,12.15
2018-07-13T06:18:17.235Z,11.20
2018-07-13T06:18:50.866Z,12.25
2018-07-13T06:19:24.433Z,13.38
2018-07-13T06:19:57.970Z,12.23
2018-07-13T06:20:31.499Z,12.05
2018-07-13T06:21:05.199Z,11.88
2018-07-13T06:21:38.748Z,11.88
2018-07-13T06:22:12.312Z,13.68
2018-07-13T06:22:45.921Z,11.85
2018-07-13T06:23:19.457Z,12.75
2018-07-13T06:23:53.019Z,12.33
2018-07-13T06:24:28.272Z,12.55
2018-07-13T06:25:01.847Z,11.53
2018-07-13T06:25:35.494Z,13.03
2018-07-13T06:26:09.058Z,13.22
2018-07-13T06:26:43.239Z,13.72
2018-07-13T06:27:16.830Z,12.70
2018-07-13T06:27:50.417Z,14.45
2018-07-13T06:28:24.057Z,12.75
2018-07-13T06:28:57.593Z,12.78
2018-07-13T06:29:31.181Z,12.03
2018-07-13T06:30:04.894Z,11.50
2018-07-13T06:30:38.474Z,13.90
2018-07-13T06:31:16.800Z,13.28
2018-07-13T06:32:06.997Z,13.22
2018-07-13T06:32:40.584Z,12.65
2018-07-13T06:33:14.177Z,12.15
2018-07-13T06:33:47.751Z,12.58
2018-07-13T06:34:21.325Z,12.95
2018-07-13T06:34:54.868Z,12.68
2018-07-13T06:35:29.066Z,12.82
2018-07-13T06:36:02.733Z,13.60
2018-07-13T06:36:36.392Z,12.25
2018-07-13T06:37:09.955Z,12.68
2018-07-13T06:37:43.559Z,14.20
2018-07-13T06:38:17.210Z,13.35
2018-07-13T06:38:50.796Z,14.73
2018-07-13T06:39:24.436Z,13.90
2018-07-13T06:39:58.029Z,14.95
2018-07-13T06:40:32.100Z,14.70
2018-07-13T06:41:05.673Z,13.68
2018-07-13T06:41:39.850Z,13.53
2018-07-13T06:42:13.414Z,14.25
2018-07-13T06:42:47.227Z,13.08
2018-07-13T06:43:20.776Z,14.20
2018-07-13T06:43:54.581Z,12.95
2018-07-13T06:44:28.189Z,12.33
2018-07-13T06:45:01.938Z,14.25
2018-07-13T06:45:39.448Z,13.13
2018-07-13T06:46:13.279Z,12.85
2018-07-13T06:46:47.991Z,14.45
2018-07-13T06:47:21.593Z,12.85
2018-07-13T06:47:55.533Z,13.62
2018-07-13T06:48:30.239Z,14.65
2018-07-13T06:49:03.794Z,14.18
2018-07-13T06:49:37.351Z,14.98
2018-07-13T06:50:11.033Z,15.50
2018-07-13T06:50:44.844Z,14.13
2018-07-13T06:51:18.410Z,14.30
2018-07-13T06:51:52.222Z,14.00
2018-07-13T06:52:25.786Z,14.03
2018-07-13T06:52:59.572Z,14.20
2018-07-13T06:53:32.974Z,14.85
2018-07-13T06:54:07.332Z,14.00
2018-07-13T06:54:40.982Z,14.37
2018-07-13T06:55:15.755Z,13.32
2018-07-13T06:55:49.516Z,14.78
2018-07-13T06:56:23.069Z,13.80
2018-07-13T06:56:56.759Z,14.87
2018-07-13T06:57:41.534Z,14.23
2018-07-13T06:58:26.137Z,12.60
2018-07-13T06:59:05.800Z,13.32
2018-07-13T06:59:39.318Z,12.23
2018-07-13T07:01:05.558Z,13.53
2018-07-13T07:01:39.079Z,12.55
2018-07-13T07:02:49.808Z,13.18
2018-07-13T07:03:24.104Z,12.87
2018-07-13T07:04:39.836Z,13.00
2018-07-13T07:06:21.748Z,11.95
2018-07-13T07:06:55.930Z,13.22
2018-07-13T07:07:29.508Z,12.70
2018-07-13T07:08:03.087Z,12.30
2018-07-13T07:08:38.078Z,13.20
2018-07-13T07:09:11.935Z,12.43
2018-07-13T07:09:48.946Z,12.50
2018-07-13T07:10:22.499Z,13.62
2018-07-13T07:10:56.421Z,12.20
2018-07-13T07:11:30.281Z,12.98
2018-07-13T07:13:12.364Z,13.00
2018-07-13T07:13:46.907Z,12.93
2018-07-13T07:14:20.622Z,11.45
2018-07-13T07:14:54.335Z,12.00
2018-07-13T07:15:28.031Z,13.80
2018-07-13T07:16:02.239Z,11.35
2018-07-13T07:16:35.847Z,10.75
2018-07-13T07:17:09.678Z,12.80
2018-07-13T07:17:43.277Z,12.75
2018-07-13T07:18:16.818Z,11.97
2018-07-13T07:18:50.506Z,12.95
2018-07-13T07:19:24.200Z,12.05
2018-07-13T07:19:58.053Z,13.72
2018-07-13T07:20:31.782Z,12.65
2018-07-13T07:21:06.219Z,11.65
2018-07-13T07:21:39.740Z,11.75
2018-07-13T07:22:13.285Z,12.78
2018-07-13T07:22:47.748Z,11.80
2018-07-13T07:23:21.299Z,11.68
2018-07-13T07:23:54.811Z,12.85
2018-07-13T07:24:28.449Z,11.05
2018-07-13T07:25:02.388Z,11.63
2018-07-13T07:25:35.931Z,11.90
2018-07-13T07:26:10.510Z,10.60
2018-07-13T07:26:44.821Z,11.03
2018-07-13T07:27:18.507Z,11.33
2018-07-13T07:27:52.520Z,12.05